createdAt,value
2017-11-11T00:00:00.661Z,4.30
2017-11-11T00:02:27.792Z,4.20
2017-11-11T00:04:54.190Z,4.20
2017-11-11T00:07:20.550Z,4.20
2017-11-11T00:09:46.972Z,4.20
2017-11-11T00:12:13.367Z,4.10
2017-11-11T00:14:39.733Z,4.10
2017-11-11T00:17:06.237Z,4.10
2017-11-11T00:19:33.331Z,4.10
2017-11-11T00:21:59.700Z,4.10
2017-11-11T00:24:26.062Z,4.10
2017-11-11T00:26:52.442Z,4.10
2017-11-11T00:29:18.925Z,4.10
2017-11-11T00:31:45.262Z,4.10
2017-11-11T00:34:13.191Z,4.00
2017-11-11T00:36:40.269Z,4.10
2017-11-11T00:39:06.634Z,4.00
2017-11-11T00:41:32.968Z,4.10
2017-11-11T00:43:59.330Z,4.00
2017-11-11T00:46:26.471Z,4.10
2017-11-11T00:48:52.872Z,4.00
2017-11-11T00:51:19.293Z,4.00
2017-11-11T00:53:46.405Z,4.20
2017-11-11T00:56:12.848Z,4.20
2017-11-11T00:58:39.963Z,4.20
2017-11-11T01:01:06.305Z,4.20
2017-11-11T01:03:32.653Z,4.20
2017-11-11T01:05:59.048Z,4.10
2017-11-11T01:08:25.454Z,4.10
2017-11-11T01:10:51.808Z,4.10
2017-11-11T01:13:18.221Z,4.20
2017-11-11T01:15:44.557Z,4.20
2017-11-11T01:18:10.927Z,4.20
2017-11-11T01:20:38.095Z,4.30
2017-11-11T01:23:04.514Z,4.20
2017-11-11T01:25:30.864Z,4.40
2017-11-11T01:27:57.221Z,4.50
2017-11-11T01:30:24.370Z,4.80
2017-11-11T01:32:50.752Z,4.80
2017-11-11T01:35:17.864Z,5.10
2017-11-11T01:37:44.221Z,5.10
2017-11-11T01:40:10.621Z,5.20
2017-11-11T01:42:36.981Z,5.20
2017-11-11T01:45:03.402Z,5.10
2017-11-11T01:47:30.686Z,4.80
2017-11-11T01:49:58.588Z,4.70
2017-11-11T01:52:25.745Z,4.70
2017-11-11T01:54:52.157Z,4.70
2017-11-11T01:57:18.537Z,4.60
2017-11-11T01:59:44.916Z,4.60
2017-11-11T02:02:12.140Z,4.50
2017-11-11T02:04:38.521Z,4.40
2017-11-11T02:07:05.681Z,4.50
2017-11-11T02:09:32.077Z,4.40
2017-11-11T02:11:59.261Z,4.50
2017-11-11T02:14:25.646Z,4.40
2017-11-11T02:16:52.805Z,4.40
2017-11-11T02:19:19.946Z,4.40
2017-11-11T02:21:46.352Z,4.30
2017-11-11T02:24:12.773Z,4.40
2017-11-11T02:26:39.149Z,4.50
2017-11-11T02:29:05.558Z,4.50
2017-11-11T02:31:31.997Z,4.50
2017-11-11T02:33:58.411Z,4.40
2017-11-11T02:36:25.565Z,4.40
2017-11-11T02:38:52.053Z,4.40
2017-11-11T02:41:18.532Z,4.40
2017-11-11T02:43:44.962Z,4.40
2017-11-11T02:46:11.375Z,4.40
2017-11-11T02:48:37.809Z,4.40
2017-11-11T02:51:04.236Z,4.40
2017-11-11T02:53:30.696Z,4.40
2017-11-11T02:55:57.834Z,4.40
2017-11-11T02:58:24.225Z,4.40
2017-11-11T03:00:50.804Z,4.40
2017-11-11T03:03:17.237Z,4.40
2017-11-11T03:05:43.630Z,4.40
2017-11-11T03:08:10.000Z,4.40
2017-11-11T03:10:36.433Z,4.40
2017-11-11T03:13:03.565Z,4.40
2017-11-11T03:15:29.965Z,4.10
2017-11-11T03:17:56.393Z,4.40
2017-11-11T03:20:22.785Z,4.40
2017-11-11T03:22:49.177Z,4.50
2017-11-11T03:25:15.586Z,4.50
2017-11-11T03:27:41.974Z,4.60
2017-11-11T03:30:09.140Z,4.70
2017-11-11T03:32:36.238Z,4.80
2017-11-11T03:35:02.574Z,4.80
2017-11-11T03:37:28.978Z,4.90
2017-11-11T03:39:55.337Z,4.90
2017-11-11T03:42:21.769Z,5.00
2017-11-11T03:44:48.148Z,5.00
2017-11-11T03:47:14.496Z,5.10
2017-11-11T03:49:41.057Z,5.20
2017-11-11T03:52:08.296Z,5.20
2017-11-11T03:54:34.677Z,5.10
2017-11-11T03:57:01.052Z,5.20
2017-11-11T03:59:27.549Z,5.20
2017-11-11T04:01:53.954Z,5.20
2017-11-11T04:04:20.361Z,5.20
2017-11-11T04:06:47.477Z,5.10
2017-11-11T04:09:13.872Z,5.10
2017-11-11T04:11:40.985Z,5.00
2017-11-11T04:14:07.401Z,4.90
2017-11-11T04:16:33.786Z,4.90
2017-11-11T04:19:00.152Z,4.90
2017-11-11T04:21:26.641Z,4.90
2017-11-11T04:23:52.986Z,4.80
2017-11-11T04:26:19.387Z,4.90
2017-11-11T04:28:47.259Z,5.00
2017-11-11T04:31:14.390Z,5.10
2017-11-11T04:33:40.794Z,5.00
2017-11-11T04:36:07.173Z,5.10
2017-11-11T04:38:33.561Z,5.20
2017-11-11T04:40:59.905Z,5.20
2017-11-11T04:43:27.769Z,5.20
2017-11-11T04:45:54.116Z,5.10
2017-11-11T04:48:21.244Z,5.30
2017-11-11T04:50:47.641Z,5.20
2017-11-11T04:53:14.797Z,5.40
2017-11-11T04:55:41.913Z,5.40
2017-11-11T04:58:08.292Z,5.40
2017-11-11T05:00:34.668Z,5.40
2017-11-11T05:03:01.013Z,5.50
2017-11-11T05:05:27.436Z,5.60
2017-11-11T05:07:54.525Z,5.60
2017-11-11T05:10:20.926Z,5.60
2017-11-11T05:12:47.557Z,5.70
2017-11-11T05:15:13.908Z,5.60
2017-11-11T05:17:40.278Z,5.50
2017-11-11T05:20:06.737Z,5.50
2017-11-11T05:22:33.890Z,5.30
2017-11-11T05:25:01.038Z,5.30
2017-11-11T05:27:28.165Z,5.20
2017-11-11T05:29:54.518Z,5.20
2017-11-11T05:32:20.873Z,5.20
2017-11-11T05:34:47.518Z,5.10
2017-11-11T05:37:14.326Z,5.10
2017-11-11T05:39:40.697Z,5.00
2017-11-11T05:42:07.846Z,4.90
2017-11-11T05:44:34.254Z,4.80
2017-11-11T05:47:01.390Z,4.80
2017-11-11T05:49:27.809Z,4.70
2017-11-11T05:51:55.720Z,4.70
2017-11-11T05:54:22.197Z,4.70
2017-11-11T05:56:48.798Z,4.70
2017-11-11T05:59:15.177Z,4.70
2017-11-11T06:01:42.270Z,4.80
2017-11-11T06:04:08.700Z,4.70
2017-11-11T06:06:35.089Z,4.70
2017-11-11T06:09:01.489Z,4.80
2017-11-11T06:11:28.357Z,4.80
2017-11-11T06:13:54.811Z,4.80
2017-11-11T06:16:21.237Z,4.80
2017-11-11T06:18:47.713Z,4.80
2017-11-11T06:21:14.309Z,4.80
2017-11-11T06:23:40.889Z,4.80
2017-11-11T06:26:07.553Z,4.80
2017-11-11T06:28:35.613Z,4.90
2017-11-11T06:33:55.212Z,4.90
2017-11-11T06:36:25.634Z,4.90
2017-11-11T06:38:53.142Z,5.00
2017-11-11T06:41:20.549Z,5.00
2017-11-11T06:43:47.248Z,5.00
2017-11-11T06:46:13.746Z,5.00
2017-11-11T06:51:16.001Z,5.10
2017-11-11T06:53:43.561Z,5.10
2017-11-11T06:56:10.149Z,5.10
2017-11-11T06:58:40.858Z,5.10
2017-11-11T07:01:10.088Z,5.20
2017-11-11T07:03:40.240Z,5.20
2017-11-11T07:06:07.449Z,5.20
2017-11-11T07:08:34.990Z,5.20
2017-11-11T07:11:02.013Z,5.20
2017-11-11T07:13:28.532Z,5.20
2017-11-11T07:15:55.344Z,5.30
2017-11-11T07:18:22.416Z,5.30
2017-11-11T07:20:51.730Z,5.30
2017-11-11T07:23:18.291Z,5.40
2017-11-11T07:25:47.436Z,5.50
2017-11-11T07:28:15.624Z,5.60
2017-11-11T07:30:43.076Z,5.50
2017-11-11T07:33:09.611Z,5.60
2017-11-11T07:35:38.081Z,5.70
2017-11-11T07:38:06.406Z,5.80
2017-11-11T07:40:33.052Z,5.80
2017-11-11T07:43:00.666Z,5.60
2017-11-11T07:45:28.642Z,5.80
2017-11-11T07:47:55.927Z,5.90
2017-11-11T07:50:22.617Z,5.90
2017-11-11T07:52:51.488Z,6.00
2017-11-11T07:55:20.482Z,6.10
2017-11-11T07:57:47.253Z,6.10
2017-11-11T08:00:16.837Z,6.10
2017-11-11T08:02:44.004Z,6.10
2017-11-11T08:05:11.418Z,6.20
2017-11-11T08:07:38.064Z,6.20
2017-11-11T08:10:06.980Z,6.40
2017-11-11T08:12:34.435Z,6.30
2017-11-11T08:15:02.599Z,6.40
2017-11-11T08:17:31.289Z,6.40
2017-11-11T08:20:01.153Z,6.00
2017-11-11T08:22:28.484Z,6.40
2017-11-11T08:24:55.873Z,6.40
2017-11-11T08:27:23.999Z,6.40
2017-11-11T08:29:53.118Z,6.30
2017-11-11T08:32:20.920Z,6.50
2017-11-11T08:34:50.388Z,6.60
2017-11-11T08:37:18.663Z,6.00
2017-11-11T08:39:45.907Z,6.50
2017-11-11T08:42:12.936Z,6.50
2017-11-11T08:44:42.059Z,6.50
2017-11-11T08:47:09.708Z,6.50
2017-11-11T08:49:36.466Z,6.50
2017-11-11T08:52:06.664Z,6.50
2017-11-11T08:54:33.280Z,6.60
2017-11-11T08:57:02.812Z,6.50
2017-11-11T08:59:30.597Z,6.50
2017-11-11T09:01:57.150Z,6.70
2017-11-11T09:04:24.580Z,6.50
2017-11-11T09:06:51.798Z,6.40
2017-11-11T09:09:18.376Z,6.40
2017-11-11T09:11:45.724Z,6.50
2017-11-11T09:14:13.507Z,6.50
2017-11-11T09:16:42.581Z,6.70
2017-11-11T09:19:11.070Z,6.70
2017-11-11T09:21:39.279Z,6.60
2017-11-11T09:24:10.471Z,7.20
2017-11-11T09:26:38.548Z,6.70
2017-11-11T09:29:06.705Z,6.70
2017-11-11T09:31:35.220Z,6.60
2017-11-11T09:34:03.484Z,6.70
2017-11-11T09:36:30.916Z,6.70
2017-11-11T09:39:00.755Z,6.60
2017-11-11T09:41:27.259Z,6.70
2017-11-11T09:43:54.513Z,6.70
2017-11-11T09:46:24.509Z,6.70
2017-11-11T09:48:51.662Z,6.80
2017-11-11T09:51:19.359Z,6.90
2017-11-11T09:53:46.705Z,6.60
2017-11-11T09:56:14.602Z,7.00
2017-11-11T09:58:42.268Z,6.70
2017-11-11T10:01:08.751Z,6.90
2017-11-11T10:03:38.606Z,6.90
2017-11-11T10:06:07.608Z,6.90
2017-11-11T10:08:37.195Z,6.80
2017-11-11T10:11:05.230Z,6.10
2017-11-11T10:13:31.860Z,6.80
2017-11-11T10:16:01.927Z,6.80
2017-11-11T10:18:31.129Z,6.80
2017-11-11T10:21:00.228Z,6.90
2017-11-11T10:23:29.525Z,6.90
2017-11-11T10:25:56.382Z,6.90
2017-11-11T10:28:24.734Z,6.80
2017-11-11T10:30:52.164Z,6.80
2017-11-11T10:33:20.316Z,6.80
2017-11-11T10:35:46.801Z,6.80
2017-11-11T10:38:14.045Z,6.70
2017-11-11T10:40:40.654Z,6.70
2017-11-11T10:43:10.168Z,6.70
2017-11-11T10:45:37.927Z,6.70
2017-11-11T10:48:06.052Z,6.90
2017-11-11T10:50:32.626Z,6.80
2017-11-11T10:53:00.566Z,6.90
2017-11-11T10:55:28.096Z,7.00
2017-11-11T10:57:54.713Z,7.00
2017-11-11T11:00:24.259Z,6.90
2017-11-11T11:02:50.829Z,6.90
2017-11-11T11:05:17.412Z,6.90
2017-11-11T11:07:44.945Z,7.00
2017-11-11T11:10:11.461Z,7.00
2017-11-11T11:12:38.057Z,6.90
2017-11-11T11:15:06.015Z,7.00
2017-11-11T11:17:36.284Z,7.00
2017-11-11T11:20:03.520Z,7.00
2017-11-11T11:22:31.691Z,7.00
2017-11-11T11:24:59.872Z,7.00
2017-11-11T11:27:27.141Z,7.00
2017-11-11T11:29:54.737Z,7.00
2017-11-11T11:32:23.454Z,7.00
2017-11-11T11:34:51.363Z,7.00
2017-11-11T11:37:19.631Z,7.10
2017-11-11T11:39:46.305Z,7.00
2017-11-11T11:42:13.004Z,7.10
2017-11-11T11:44:42.078Z,7.10
2017-11-11T11:47:11.846Z,7.10
2017-11-11T11:49:41.831Z,7.10
2017-11-11T11:52:09.365Z,7.10
2017-11-11T11:54:37.688Z,7.10
2017-11-11T11:57:04.917Z,7.10
2017-11-11T11:59:31.411Z,7.10
2017-11-11T12:01:58.737Z,7.20
2017-11-11T12:04:26.236Z,7.20
2017-11-11T12:06:52.741Z,7.30
2017-11-11T12:09:20.193Z,7.30
2017-11-11T12:11:48.325Z,7.40
2017-11-11T12:14:15.014Z,7.40
2017-11-11T12:16:42.948Z,7.60
2017-11-11T12:19:12.199Z,7.60
2017-11-11T12:21:38.732Z,7.70
2017-11-11T12:24:05.256Z,7.70
2017-11-11T12:26:31.734Z,7.70
2017-11-11T12:28:59.073Z,7.90
2017-11-11T12:31:26.824Z,7.90
2017-11-11T12:33:54.062Z,7.90
2017-11-11T12:36:20.569Z,7.80
2017-11-11T12:38:48.487Z,7.70
2017-11-11T12:41:18.017Z,7.80
2017-11-11T12:43:44.437Z,7.80
2017-11-11T12:46:10.949Z,7.90
2017-11-11T12:48:37.622Z,7.90
2017-11-11T12:51:05.236Z,7.90
2017-11-11T12:53:32.769Z,8.00
2017-11-11T12:55:59.314Z,8.00
2017-11-11T12:58:26.741Z,8.00
2017-11-11T13:00:54.076Z,8.10
2017-11-11T13:03:20.672Z,8.00
2017-11-11T13:05:47.986Z,8.10
2017-11-11T13:08:15.429Z,8.20
2017-11-11T13:10:42.070Z,8.20
2017-11-11T13:13:09.335Z,8.10
2017-11-11T13:15:36.519Z,8.10
2017-11-11T13:18:04.972Z,8.10
2017-11-11T13:20:31.612Z,8.10
2017-11-11T13:22:58.227Z,8.00
2017-11-11T13:25:25.564Z,8.00
2017-11-11T13:27:52.757Z,8.40
2017-11-11T13:30:19.468Z,8.40
2017-11-11T13:32:46.068Z,9.00
2017-11-11T13:35:13.624Z,8.80
2017-11-11T13:37:40.247Z,8.90
2017-11-11T13:40:07.688Z,9.00
2017-11-11T13:42:34.311Z,8.90
2017-11-11T13:45:01.499Z,8.80
2017-11-11T13:47:28.516Z,8.70
2017-11-11T13:49:57.224Z,8.60
2017-11-11T13:52:25.337Z,8.50
2017-11-11T13:54:51.904Z,8.40
2017-11-11T13:57:18.548Z,8.40
2017-11-11T13:59:46.388Z,8.40
2017-11-11T14:02:12.953Z,8.30
2017-11-11T14:04:42.154Z,8.10
2017-11-11T14:07:08.787Z,8.10
2017-11-11T14:09:36.394Z,8.10
2017-11-11T14:12:04.556Z,8.00
2017-11-11T14:14:31.193Z,7.90
2017-11-11T14:16:57.850Z,7.90
2017-11-11T14:19:24.444Z,8.00
2017-11-11T14:21:51.002Z,7.90
2017-11-11T14:24:17.718Z,7.90
2017-11-11T14:26:44.321Z,7.90
2017-11-11T14:29:10.955Z,8.00
2017-11-11T14:31:38.332Z,8.00
2017-11-11T14:34:04.952Z,8.00
2017-11-11T14:36:31.484Z,8.00
2017-11-11T14:38:58.072Z,7.90
2017-11-11T14:41:26.225Z,7.80
2017-11-11T14:43:52.783Z,7.80
2017-11-11T14:46:19.416Z,7.80
2017-11-11T14:48:45.925Z,7.70
2017-11-11T14:51:13.153Z,7.70
2017-11-11T14:53:39.692Z,7.70
2017-11-11T14:56:06.873Z,7.70
2017-11-11T14:58:34.153Z,7.50
2017-11-11T15:01:00.750Z,7.60
2017-11-11T15:03:27.296Z,7.40
2017-11-11T15:05:53.861Z,7.40
2017-11-11T15:08:22.748Z,7.30
2017-11-11T15:10:49.336Z,7.30
2017-11-11T15:13:15.835Z,7.20
2017-11-11T15:15:42.432Z,7.10
2017-11-11T15:18:08.932Z,7.00
2017-11-11T15:20:37.320Z,6.70
2017-11-11T15:23:03.869Z,6.80
2017-11-11T15:25:30.462Z,6.60
2017-11-11T15:27:57.602Z,6.60
2017-11-11T15:30:24.208Z,6.50
2017-11-11T15:32:51.536Z,6.30
2017-11-11T15:35:18.108Z,6.30
2017-11-11T15:37:44.749Z,6.30
2017-11-11T15:40:11.279Z,6.30
2017-11-11T15:42:37.855Z,6.30
2017-11-11T15:45:04.490Z,6.40
2017-11-11T15:47:31.995Z,6.50
2017-11-11T15:50:00.355Z,6.50
2017-11-11T15:52:28.006Z,6.50
2017-11-11T15:54:54.632Z,6.60
2017-11-11T15:57:23.539Z,6.60
2017-11-11T15:59:53.260Z,6.60
2017-11-11T16:02:21.477Z,6.60
2017-11-11T16:04:48.975Z,6.70
2017-11-11T16:07:18.539Z,6.70
2017-11-11T16:09:47.496Z,6.70
2017-11-11T16:12:15.847Z,6.70
2017-11-11T16:14:43.469Z,6.70
2017-11-11T16:17:09.966Z,6.70
2017-11-11T16:19:36.465Z,6.60
2017-11-11T16:22:03.015Z,6.60
2017-11-11T16:24:30.698Z,6.50
2017-11-11T16:26:57.169Z,6.50
2017-11-11T16:29:23.668Z,6.50
2017-11-11T16:31:50.137Z,6.50
2017-11-11T16:34:16.624Z,6.60
2017-11-11T16:36:43.088Z,6.50
2017-11-11T16:39:09.529Z,6.50
2017-11-11T16:41:35.984Z,6.60
2017-11-11T16:44:02.530Z,6.50
2017-11-11T16:49:06.592Z,6.50
2017-11-11T16:51:32.979Z,6.60
2017-11-11T16:53:59.400Z,6.50
2017-11-11T16:56:25.828Z,6.60
2017-11-11T16:58:52.230Z,6.60
2017-11-11T17:01:18.689Z,6.60
2017-11-11T17:03:45.120Z,6.60
2017-11-11T17:06:11.580Z,6.60
2017-11-11T17:08:38.021Z,6.70
2017-11-11T17:11:04.472Z,6.70
2017-11-11T17:13:31.624Z,6.60
2017-11-11T17:15:58.136Z,6.60
2017-11-11T17:18:24.606Z,6.60
2017-11-11T17:20:51.049Z,6.60
2017-11-11T17:23:17.409Z,6.50
2017-11-11T17:25:43.738Z,6.60
2017-11-11T17:28:10.081Z,6.60
2017-11-11T17:30:36.537Z,6.50
2017-11-11T17:33:02.930Z,6.40
2017-11-11T17:35:29.304Z,6.30
2017-11-11T17:37:55.772Z,6.20
2017-11-11T17:40:22.260Z,6.10
2017-11-11T17:42:48.681Z,6.00
2017-11-11T17:45:15.029Z,6.10
2017-11-11T17:47:42.131Z,6.20
2017-11-11T17:50:08.478Z,6.30
2017-11-11T17:52:34.854Z,6.20
2017-11-11T17:55:01.415Z,6.30
2017-11-11T17:57:28.527Z,6.40
2017-11-11T17:59:54.872Z,6.30
2017-11-11T18:02:21.228Z,6.40
2017-11-11T18:04:47.632Z,6.20
2017-11-11T18:07:13.997Z,6.10
2017-11-11T18:09:40.376Z,6.00
2017-11-11T18:12:08.196Z,5.70
2017-11-11T18:14:34.569Z,5.70
2017-11-11T18:17:01.030Z,5.70
2017-11-11T18:19:27.418Z,5.70
2017-11-11T18:21:53.835Z,5.80
2017-11-11T18:24:20.181Z,5.80
2017-11-11T18:26:47.265Z,5.80
2017-11-11T18:29:13.613Z,5.70
2017-11-11T18:31:40.029Z,5.70
2017-11-11T18:34:06.378Z,5.60
2017-11-11T18:36:32.762Z,5.60
2017-11-11T18:38:59.096Z,5.60
2017-11-11T18:41:25.504Z,5.50
2017-11-11T18:43:52.590Z,5.40
2017-11-11T18:46:18.981Z,5.40
2017-11-11T18:48:45.384Z,5.30
2017-11-11T18:51:11.781Z,5.20
2017-11-11T18:53:38.876Z,5.00
2017-11-11T18:56:05.269Z,4.90
2017-11-11T18:58:32.429Z,4.80
2017-11-11T19:00:59.829Z,4.70
2017-11-11T19:03:26.216Z,4.70
2017-11-11T19:05:52.623Z,4.60
2017-11-11T19:08:19.797Z,4.50
2017-11-11T19:10:46.980Z,4.50
2017-11-11T19:13:13.365Z,4.50
2017-11-11T19:15:39.765Z,4.50
2017-11-11T19:18:06.140Z,4.50
2017-11-11T19:20:33.253Z,4.50
2017-11-11T19:22:59.668Z,4.50
2017-11-11T19:25:26.058Z,4.50
2017-11-11T19:27:52.415Z,4.50
2017-11-11T19:30:18.776Z,4.50
2017-11-11T19:32:45.239Z,4.50
2017-11-11T19:35:11.621Z,4.50
2017-11-11T19:37:38.225Z,4.70
2017-11-11T19:40:05.359Z,4.50
2017-11-11T19:42:31.717Z,4.50
2017-11-11T19:44:58.085Z,4.70
2017-11-11T19:47:24.446Z,4.60
2017-11-11T19:49:50.796Z,4.60
2017-11-11T19:52:17.149Z,5.00
2017-11-11T19:54:44.282Z,4.80
2017-11-11T19:57:11.391Z,4.80
2017-11-11T19:59:37.762Z,4.80
2017-11-11T20:02:04.253Z,4.90
2017-11-11T20:04:30.625Z,4.90
2017-11-11T20:06:57.029Z,4.90
2017-11-11T20:09:23.373Z,5.00
2017-11-11T20:11:49.807Z,5.00
2017-11-11T20:14:16.182Z,5.00
2017-11-11T20:16:42.561Z,5.00
2017-11-11T20:19:09.025Z,5.10
2017-11-11T20:21:35.393Z,5.10
2017-11-11T20:24:01.802Z,5.10
2017-11-11T20:26:28.253Z,5.20
2017-11-11T20:28:54.728Z,5.10
2017-11-11T20:31:21.849Z,5.20
2017-11-11T20:33:48.202Z,5.10
2017-11-11T20:36:14.572Z,5.20
2017-11-11T20:38:40.996Z,5.50
2017-11-11T20:41:08.077Z,5.20
2017-11-11T20:43:34.609Z,5.20
2017-11-11T20:46:01.709Z,5.10
2017-11-11T20:48:28.097Z,5.10
2017-11-11T20:50:54.569Z,5.00
2017-11-11T20:53:20.930Z,4.90
2017-11-11T20:55:47.380Z,4.90
2017-11-11T20:58:14.726Z,4.90
2017-11-11T21:00:41.153Z,4.80
2017-11-11T21:03:07.528Z,4.90
2017-11-11T21:05:33.928Z,4.90
2017-11-11T21:08:00.289Z,4.90
2017-11-11T21:10:27.409Z,4.90
2017-11-11T21:12:53.758Z,4.90
2017-11-11T21:15:20.151Z,4.80
2017-11-11T21:17:46.509Z,4.80
2017-11-11T21:20:12.912Z,4.70
2017-11-11T21:22:40.029Z,4.80
2017-11-11T21:25:06.580Z,4.70
2017-11-11T21:27:32.969Z,4.80
2017-11-11T21:30:00.069Z,4.80
2017-11-11T21:32:26.445Z,4.80
2017-11-11T21:34:52.773Z,4.80
2017-11-11T21:37:19.157Z,4.80
2017-11-11T21:39:45.494Z,4.60
2017-11-11T21:42:12.597Z,4.40
2017-11-11T21:44:38.966Z,4.40
2017-11-11T21:47:05.329Z,4.40
2017-11-11T21:49:32.425Z,4.10
2017-11-11T21:51:58.795Z,4.10
2017-11-11T21:54:25.194Z,4.30
2017-11-11T21:56:52.337Z,3.90
2017-11-11T21:59:18.684Z,3.90
2017-11-11T22:01:45.070Z,3.90
2017-11-11T22:04:11.496Z,3.90
2017-11-11T22:06:38.557Z,3.80
2017-11-11T22:09:05.653Z,3.80
2017-11-11T22:11:32.037Z,4.00
2017-11-11T22:13:58.389Z,3.80
2017-11-11T22:16:26.353Z,3.70
2017-11-11T22:18:53.490Z,3.60
2017-11-11T22:21:19.870Z,3.60
2017-11-11T22:23:46.239Z,3.60
2017-11-11T22:26:12.584Z,3.80
2017-11-11T22:28:38.955Z,3.50
2017-11-11T22:31:05.290Z,3.40
2017-11-11T22:33:31.673Z,3.40
2017-11-11T22:35:58.050Z,3.80
2017-11-11T22:38:24.361Z,3.50
2017-11-11T22:40:51.498Z,3.60
2017-11-11T22:43:17.968Z,3.90
2017-11-11T22:45:44.377Z,3.60
2017-11-11T22:48:10.721Z,3.80
2017-11-11T22:50:37.097Z,3.60
2017-11-11T22:53:03.439Z,3.60
2017-11-11T22:55:30.545Z,3.60
2017-11-11T22:57:56.971Z,3.60
2017-11-11T23:00:35.730Z,3.60
2017-11-11T23:03:02.082Z,3.70
2017-11-11T23:05:28.586Z,3.70
2017-11-11T23:07:54.937Z,3.70
2017-11-11T23:10:21.275Z,3.80
2017-11-11T23:12:47.620Z,3.80
2017-11-11T23:15:14.081Z,3.80
2017-11-11T23:17:41.261Z,4.00
2017-11-11T23:20:07.594Z,4.00
2017-11-11T23:22:34.013Z,4.10
2017-11-11T23:25:00.331Z,4.10
2017-11-11T23:27:26.677Z,4.20
2017-11-11T23:29:53.012Z,4.20
2017-11-11T23:32:20.142Z,4.20
2017-11-11T23:34:46.633Z,4.20
2017-11-11T23:37:12.977Z,4.30
2017-11-11T23:39:39.351Z,4.30
2017-11-11T23:42:06.429Z,4.20
2017-11-11T23:44:32.794Z,4.20
2017-11-11T23:46:59.109Z,4.20
2017-11-11T23:49:25.483Z,4.20
2017-11-11T23:51:51.815Z,4.10
2017-11-11T23:54:18.190Z,4.00
2017-11-11T23:56:44.519Z,3.90
2017-11-11T23:59:10.925Z,3.90
